Ulen, Minnesota
Current Conditions -  °F | °C
As of 4:55 AM on Thursday 27 Nov 2014 (Local Time) from K3N8 Reporting Station
Clear Clear  
Wind Chill: -13°   Ceiling: Unl
Heat Index: -13°   Visibility: 10mi
Dew Point: -17°   Wind: 0mph
Humidity: 81%   Direction: NA
Pressure: 30.48"   Gusts: NA
Location:  47.08°N, 96.26°W
Report Text: K3N8 271055Z AUTO 00000KT 10SM CLR M25/M27 A3048 RMK AO2 T12481272
Loading
Personal Weather Stations






























Interactive Weather Map New forecast layout! Learn more

10-Day Weather Forecast

Advertisements
Track Severe Weather on mobile